Time;durP1;ratioP1;P1;durP2;ratioP2;P2;SDS_P1;SDS_P2;PMS_P1;PMS_P2;Temp;Humidity;BMP_temperature;BMP_pressure;BME280_temperature;BME280_humidity;BME280_pressure;Samples;Min_cycle;Max_cycle;Signal;HPM_P1;HPM_P2
2022/06/12 00:00:25;;;;;;;20.27;7.57;;;19.00;35.80;;;;;;5060146;28;20417;-80
2022/06/12 00:02:51;;;;;;;20.50;7.53;;;18.90;36.00;;;;;;5060178;28;20455;-82
2022/06/12 00:05:19;;;;;;;21.85;7.30;;;18.80;36.40;;;;;;5060352;28;20421;-82
2022/06/12 00:07:45;;;;;;;18.60;7.15;;;18.70;36.30;;;;;;5059179;28;20774;-82
2022/06/12 00:10:12;;;;;;;21.13;7.43;;;18.70;36.50;;;;;;5049018;28;20392;-80
2022/06/12 00:12:40;;;;;;;21.98;7.50;;;18.80;36.10;;;;;;5065967;28;20414;-82
2022/06/12 00:15:07;;;;;;;21.73;7.97;;;18.70;36.60;;;;;;5058465;28;20460;-83
2022/06/12 00:17:33;;;;;;;20.13;6.60;;;18.60;36.40;;;;;;5058722;28;20406;-82
2022/06/12 00:19:58;;;;;;;19.83;7.07;;;18.50;37.40;;;;;;5058381;28;20413;-83
2022/06/12 00:22:24;;;;;;;21.43;7.27;;;18.40;37.80;;;;;;5059440;28;20404;-82
2022/06/12 00:24:51;;;;;;;18.77;7.90;;;18.40;37.60;;;;;;5059931;28;20381;-83
2022/06/12 00:27:16;;;;;;;22.35;6.38;;;18.30;37.70;;;;;;5042391;28;20401;-82
2022/06/12 00:29:44;;;;;;;21.93;7.07;;;18.10;38.20;;;;;;5059636;28;20546;-82
2022/06/12 00:32:13;;;;;;;21.30;7.03;;;18.10;38.20;;;;;;5061415;28;20420;-82
2022/06/12 00:34:45;;;;;;;19.42;6.60;;;18.10;37.40;;;;;;5060685;28;20429;-83
2022/06/12 00:37:12;;;;;;;19.57;6.10;;;18.00;37.70;;;;;;5049272;28;20398;-81
2022/06/12 00:39:39;;;;;;;17.47;6.30;;;17.90;36.80;;;;;;5056854;28;20765;-80
2022/06/12 00:42:06;;;;;;;22.20;6.75;;;17.80;37.70;;;;;;5058443;28;20393;-83
2022/06/12 00:44:37;;;;;;;14.67;6.50;;;17.80;37.70;;;;;;5058324;28;20461;-83
2022/06/12 00:47:10;;;;;;;13.35;6.07;;;17.80;37.90;;;;;;5040720;28;20503;-84
2022/06/12 00:49:56;;;;;;;16.23;6.78;;;17.70;38.20;;;;;;5061908;28;20896;-83
2022/06/12 00:55:43;;;;;;;19.17;6.20;;;17.60;38.60;;;;;;4926935;26;20469;-82
2022/06/12 00:59:08;;;;;;;20.40;7.20;;;17.50;38.90;;;;;;5045682;28;20905;-82
2022/06/12 01:09:38;;;;;;;;;;;;;;;;;;;;;
2022/06/12 01:13:19;;;;;;;19.15;6.47;;;17.20;38.90;;;;;;5050562;28;20455;-82
2022/06/12 01:20:20;;;;;;;19.08;6.45;;;16.80;41.80;;;;;;4956782;28;20414;-81
2022/06/12 01:23:16;;;;;;;23.20;6.55;;;16.60;43.30;;;;;;4959529;28;20445;-81
2022/06/12 01:40:57;;;;;;;;;;;;;;;;;;;;;
2022/06/12 01:51:43;;;;;;;19.38;7.18;;;15.90;58.00;;;;;;4998251;28;20398;-83
2022/06/12 01:55:03;;;;;;;16.73;7.47;;;16.20;52.60;;;;;;4993467;28;20851;-83
2022/06/12 01:57:40;;;;;;;22.63;8.52;;;16.00;53.80;;;;;;4932315;28;20574;-82
2022/06/12 02:00:10;;;;;;;24.37;8.30;;;16.00;53.30;;;;;;5030662;28;20439;-78
2022/06/12 02:02:46;;;;;;;16.63;7.32;;;15.90;54.70;;;;;;5019435;28;20389;-80
2022/06/12 02:05:27;;;;;;;16.80;7.80;;;15.60;57.40;;;;;;5028698;28;20890;-78
2022/06/12 02:08:06;;;;;;;21.45;7.82;;;15.60;58.90;;;;;;5046310;28;20395;-77
2022/06/12 02:10:49;;;;;;;22.13;8.70;;;15.50;59.30;;;;;;5038464;28;20452;-76
2022/06/12 02:13:21;;;;;;;21.23;8.27;;;15.50;60.40;;;;;;5033961;28;20426;-77
2022/06/12 02:15:53;;;;;;;24.02;8.80;;;15.30;63.30;;;;;;5039395;28;20490;-77
2022/06/12 02:18:24;;;;;;;21.75;8.00;;;15.60;61.30;;;;;;5050871;28;20895;-77
2022/06/12 02:21:05;;;;;;;19.08;8.15;;;15.40;62.10;;;;;;5054282;28;20401;-77
2022/06/12 02:24:02;;;;;;;22.85;8.85;;;15.30;64.90;;;;;;5034395;28;20403;-78
2022/06/12 02:26:57;;;;;;;19.35;8.35;;;15.10;68.00;;;;;;5036368;28;20437;-78
2022/06/12 02:29:26;;;;;;;19.55;8.07;;;15.00;70.10;;;;;;5034903;28;20394;-75
2022/06/12 02:31:55;;;;;;;21.57;9.10;;;15.10;70.90;;;;;;5033995;28;20426;-77
2022/06/12 02:34:25;;;;;;;16.88;9.77;;;15.20;69.30;;;;;;5044053;28;20422;-77
2022/06/12 02:36:57;;;;;;;19.85;9.20;;;14.90;71.50;;;;;;5045619;28;20401;-77
2022/06/12 02:39:27;;;;;;;24.35;9.05;;;14.80;75.40;;;;;;5048897;28;20373;-77
2022/06/12 02:42:13;;;;;;;18.48;8.55;;;14.60;77.20;;;;;;5062504;28;20460;-78
2022/06/12 02:44:53;;;;;;;18.47;9.13;;;14.50;80.00;;;;;;5051393;28;20477;-77
2022/06/12 02:47:24;;;;;;;23.58;8.70;;;14.50;81.50;;;;;;5033793;28;20403;-77
2022/06/12 02:49:53;;;;;;;27.55;10.15;;;14.50;83.20;;;;;;5031355;28;20409;-77
2022/06/12 02:52:36;;;;;;;21.50;9.40;;;14.60;83.00;;;;;;5050020;28;20424;-76
2022/06/12 02:55:16;;;;;;;20.83;8.68;;;14.50;80.30;;;;;;5039575;28;20425;-76
2022/06/12 02:58:00;;;;;;;23.40;8.35;;;14.40;81.70;;;;;;5032298;28;20760;-78
2022/06/12 03:00:36;;;;;;;21.92;8.35;;;14.30;82.80;;;;;;5034074;28;20470;-76
2022/06/12 03:03:10;;;;;;;17.40;8.27;;;14.30;83.80;;;;;;5032959;28;20421;-78
2022/06/12 03:05:39;;;;;;;19.70;8.18;;;14.30;84.80;;;;;;5041325;28;20395;-77
2022/06/12 03:08:16;;;;;;;16.27;8.77;;;14.30;83.70;;;;;;5050008;28;20392;-75
2022/06/12 03:10:59;;;;;;;16.58;8.40;;;14.20;85.10;;;;;;5049812;28;20405;-76
2022/06/12 03:13:27;;;;;;;21.85;8.55;;;14.20;84.30;;;;;;5046666;28;20409;-76
2022/06/12 03:16:00;;;;;;;16.02;8.02;;;14.10;85.00;;;;;;5035854;28;20387;-77
2022/06/12 03:18:32;;;;;;;17.90;8.98;;;14.30;83.20;;;;;;5031250;28;20399;-76
2022/06/12 03:21:19;;;;;;;21.10;8.65;;;14.20;83.10;;;;;;5031674;28;20490;-77
2022/06/12 03:24:17;;;;;;;18.58;9.18;;;14.10;84.70;;;;;;5036960;28;20496;-76
2022/06/12 03:27:01;;;;;;;18.67;7.65;;;14.00;85.40;;;;;;5025386;28;20477;-77
2022/06/12 03:29:30;;;;;;;21.38;8.40;;;13.90;86.80;;;;;;5012140;28;20444;-76
2022/06/12 03:32:03;;;;;;;15.70;8.10;;;13.90;86.50;;;;;;5019839;28;20421;-77
2022/06/12 03:34:38;;;;;;;15.75;6.97;;;13.80;87.00;;;;;;5037810;28;20405;-75
2022/06/12 03:37:13;;;;;;;16.02;7.30;;;13.90;86.70;;;;;;5033969;28;20805;-77
2022/06/12 03:39:49;;;;;;;17.50;6.97;;;13.90;84.70;;;;;;5031328;28;20867;-78
2022/06/12 03:42:44;;;;;;;23.98;7.43;;;14.00;83.10;;;;;;5029915;28;20833;-76
2022/06/12 03:45:17;;;;;;;16.20;7.57;;;13.90;82.50;;;;;;5039681;28;20854;-76
2022/06/12 03:47:51;;;;;;;16.20;8.30;;;14.00;83.20;;;;;;5051120;28;20399;-75
2022/06/12 03:50:35;;;;;;;13.77;6.80;;;13.90;83.40;;;;;;5051583;28;20385;-76
2022/06/12 03:53:22;;;;;;;19.17;8.00;;;14.00;83.00;;;;;;5047946;28;20401;-77
2022/06/12 03:59:00;;;;;;;21.13;7.75;;;14.10;81.50;;;;;;5012085;28;20384;-77
2022/06/12 04:01:27;;;;;;;15.63;6.70;;;14.30;80.40;;;;;;5033552;28;20393;-76
2022/06/12 04:03:54;;;;;;;18.90;7.50;;;14.40;79.60;;;;;;5048912;28;20551;-76
2022/06/12 04:06:23;;;;;;;13.20;6.60;;;14.50;77.90;;;;;;5041984;28;20439;-77
2022/06/12 04:09:00;;;;;;;19.92;6.65;;;14.60;77.10;;;;;;5049551;28;20984;-76
2022/06/12 04:11:28;;;;;;;14.00;6.20;;;14.70;75.80;;;;;;5049331;28;20405;-77
2022/06/12 04:13:56;;;;;;;16.20;6.50;;;14.70;73.60;;;;;;5049861;28;20492;-76
2022/06/12 04:16:35;;;;;;;15.25;6.60;;;14.70;71.90;;;;;;5033953;28;20855;-77
2022/06/12 04:19:04;;;;;;;16.30;7.00;;;14.70;71.20;;;;;;5030905;28;20522;-76
2022/06/12 04:21:39;;;;;;;17.13;6.88;;;14.70;70.80;;;;;;5030913;28;20490;-76
2022/06/12 04:24:19;;;;;;;20.60;8.10;;;14.70;70.70;;;;;;5032690;28;20411;-76
2022/06/12 04:26:54;;;;;;;23.08;6.82;;;14.70;69.50;;;;;;5047102;28;20385;-75
2022/06/12 04:29:30;;;;;;;16.10;7.20;;;14.70;69.50;;;;;;5042494;28;20401;-75
2022/06/12 04:32:03;;;;;;;17.57;6.90;;;14.80;68.50;;;;;;5034983;28;20430;-77
2022/06/12 04:34:38;;;;;;;14.52;5.97;;;14.80;68.30;;;;;;5041758;28;20894;-77
2022/06/12 04:37:17;;;;;;;22.73;7.80;;;14.90;67.40;;;;;;5050048;28;20481;-77
2022/06/12 04:39:43;;;;;;;15.40;6.95;;;15.00;66.30;;;;;;5035926;28;20387;-75
2022/06/12 04:42:12;;;;;;;18.95;7.13;;;15.00;66.50;;;;;;5033470;28;20823;-77
2022/06/12 04:44:38;;;;;;;18.38;7.80;;;15.00;66.60;;;;;;5038752;28;20432;-77
2022/06/12 04:47:05;;;;;;;18.33;7.00;;;15.30;64.10;;;;;;5037169;28;20431;-76
2022/06/12 04:49:34;;;;;;;16.85;6.72;;;15.30;63.20;;;;;;5036172;28;20417;-76
2022/06/12 04:52:03;;;;;;;16.45;7.00;;;15.40;63.30;;;;;;5039403;28;20415;-78
2022/06/12 04:54:30;;;;;;;19.40;7.83;;;15.40;63.80;;;;;;5034918;28;20467;-77
2022/06/12 04:56:57;;;;;;;19.13;7.50;;;15.40;63.40;;;;;;5048824;28;20779;-76
2022/06/12 04:59:22;;;;;;;17.10;7.00;;;15.50;63.20;;;;;;5034964;28;20807;-76
2022/06/12 05:01:49;;;;;;;22.00;7.60;;;15.60;62.70;;;;;;5037042;28;20387;-76
2022/06/12 05:04:15;;;;;;;18.73;8.25;;;15.70;61.80;;;;;;5035762;28;20458;-76
2022/06/12 05:06:42;;;;;;;21.35;7.30;;;15.80;60.20;;;;;;5045970;28;20952;-76
2022/06/12 05:09:10;;;;;;;18.83;6.53;;;16.40;48.70;;;;;;5051793;28;20482;-77
2022/06/12 05:11:36;;;;;;;16.17;6.63;;;16.70;44.80;;;;;;5041220;28;20418;-77
2022/06/12 05:14:02;;;;;;;18.10;6.53;;;16.90;41.70;;;;;;5036828;28;20379;-77
2022/06/12 05:16:35;;;;;;;17.73;6.97;;;16.90;40.60;;;;;;5041858;28;20893;-76
2022/06/12 05:19:04;;;;;;;23.67;7.27;;;17.00;41.20;;;;;;5051533;28;20893;-76
2022/06/12 05:21:31;;;;;;;19.45;7.00;;;17.00;43.10;;;;;;5057943;28;20389;-76
2022/06/12 05:23:58;;;;;;;14.20;6.93;;;16.90;43.60;;;;;;5055345;28;20397;-76
2022/06/12 05:26:24;;;;;;;17.02;6.30;;;16.80;43.00;;;;;;5045415;28;20390;-77
2022/06/12 05:28:50;;;;;;;17.45;7.82;;;16.80;42.50;;;;;;5043182;28;20502;-77
2022/06/12 05:31:17;;;;;;;15.60;6.05;;;16.70;43.20;;;;;;5048199;28;20388;-76
2022/06/12 05:33:44;;;;;;;17.05;5.85;;;16.70;41.10;;;;;;5058384;28;20390;-76
2022/06/12 05:36:12;;;;;;;14.02;6.22;;;16.70;41.50;;;;;;5057600;28;20373;-75
2022/06/12 05:38:38;;;;;;;20.03;5.57;;;16.80;41.80;;;;;;5047114;28;20463;-76
2022/06/12 05:41:03;;;;;;;13.70;5.30;;;16.80;38.90;;;;;;5056734;28;20387;-76
2022/06/12 05:43:29;;;;;;;14.83;4.80;;;16.80;37.30;;;;;;5068265;28;20428;-76
2022/06/12 05:45:55;;;;;;;13.33;5.37;;;16.80;35.50;;;;;;5070789;28;20988;-77
2022/06/12 05:48:22;;;;;;;14.10;4.60;;;16.90;35.90;;;;;;5059259;28;20416;-77
2022/06/12 05:50:57;;;;;;;8.07;4.00;;;17.00;36.10;;;;;;5058560;28;20791;-76
2022/06/12 05:53:24;;;;;;;14.90;4.40;;;17.00;36.60;;;;;;5053870;28;20409;-77
2022/06/12 05:55:51;;;;;;;11.32;4.30;;;17.30;35.50;;;;;;5064425;28;20401;-76
2022/06/12 05:58:19;;;;;;;11.57;3.78;;;17.40;34.30;;;;;;5044736;28;20486;-75
2022/06/12 06:00:46;;;;;;;14.02;4.32;;;17.40;33.30;;;;;;5052100;28;20788;-76
2022/06/12 06:03:12;;;;;;;13.93;4.60;;;17.40;33.10;;;;;;5057747;28;20415;-76
2022/06/12 06:05:39;;;;;;;13.05;4.35;;;17.70;31.90;;;;;;5046884;28;20771;-76
2022/06/12 06:08:06;;;;;;;13.90;4.20;;;17.70;32.10;;;;;;5037987;28;20410;-76
2022/06/12 06:10:32;;;;;;;11.40;3.58;;;18.00;30.60;;;;;;5043936;28;20393;-78
2022/06/12 06:12:58;;;;;;;8.30;3.08;;;18.00;28.40;;;;;;5049840;28;20415;-76
2022/06/12 06:15:24;;;;;;;12.75;3.40;;;18.00;28.50;;;;;;5048587;28;20417;-76
2022/06/12 06:17:50;;;;;;;14.25;3.22;;;17.90;28.30;;;;;;5041918;28;20379;-77
2022/06/12 06:20:22;;;;;;;11.68;2.90;;;18.00;28.30;;;;;;5042314;28;20484;-77
2022/06/12 06:22:49;;;;;;;11.43;3.00;;;18.10;27.70;;;;;;5048360;28;20385;-77
2022/06/12 06:25:14;;;;;;;12.02;3.10;;;18.20;27.40;;;;;;5051696;28;20934;-76
2022/06/12 06:27:40;;;;;;;12.55;3.25;;;18.40;26.10;;;;;;5041033;28;20415;-76
2022/06/12 06:30:06;;;;;;;12.90;3.30;;;18.50;25.70;;;;;;5051759;28;20523;-76
2022/06/12 06:32:32;;;;;;;13.30;3.70;;;18.50;25.90;;;;;;5048980;28;20437;-76
2022/06/12 06:34:58;;;;;;;12.50;3.00;;;18.50;25.20;;;;;;5034812;28;20837;-76
2022/06/12 06:37:24;;;;;;;11.10;3.30;;;18.50;24.70;;;;;;5035919;28;20397;-77
2022/06/12 06:39:49;;;;;;;13.77;3.30;;;18.60;24.50;;;;;;5059429;28;20391;-77
2022/06/12 06:42:15;;;;;;;18.00;4.22;;;18.60;25.40;;;;;;5045093;28;20810;-77
2022/06/12 06:47:25;;;;;;;13.43;5.03;;;18.80;28.80;;;;;;5037187;28;20412;-76
2022/06/12 06:49:51;;;;;;;16.30;5.30;;;18.90;28.90;;;;;;5045053;28;20393;-77
2022/06/12 06:52:17;;;;;;;15.63;5.18;;;18.90;28.70;;;;;;5040881;28;20416;-77
2022/06/12 06:54:43;;;;;;;17.23;5.60;;;18.90;29.70;;;;;;5041868;28;20409;-76
2022/06/12 06:57:09;;;;;;;15.73;5.75;;;18.90;28.90;;;;;;5035022;28;20384;-76
2022/06/12 06:59:36;;;;;;;12.88;5.60;;;18.90;29.30;;;;;;5032649;28;20387;-76
2022/06/12 07:02:01;;;;;;;16.52;5.78;;;18.90;29.40;;;;;;5036435;28;20410;-77
2022/06/12 07:04:27;;;;;;;17.30;5.73;;;18.90;30.30;;;;;;5039291;28;20898;-78
2022/06/12 07:06:53;;;;;;;16.90;5.70;;;18.90;30.60;;;;;;5050147;28;20381;-78
2022/06/12 07:09:19;;;;;;;17.02;6.40;;;18.90;31.50;;;;;;5056798;28;20393;-77
2022/06/12 07:11:45;;;;;;;17.98;6.28;;;18.90;31.30;;;;;;5052901;28;20413;-77
2022/06/12 07:14:11;;;;;;;17.25;6.38;;;19.00;32.20;;;;;;5051136;28;20922;-77
2022/06/12 07:16:40;;;;;;;20.23;6.20;;;19.10;31.90;;;;;;5041922;28;20399;-76
2022/06/12 07:19:07;;;;;;;20.50;5.47;;;19.00;31.50;;;;;;5044476;28;20395;-76
2022/06/12 07:21:33;;;;;;;16.83;6.18;;;19.00;31.50;;;;;;5036035;28;20383;-77
2022/06/12 07:24:28;;;;;;;17.33;5.20;;;19.10;31.90;;;;;;5035361;28;20776;-77
2022/06/12 07:26:57;;;;;;;17.00;4.40;;;19.10;30.10;;;;;;5040656;28;20395;-78
2022/06/12 07:29:24;;;;;;;10.90;4.28;;;19.10;28.30;;;;;;5037491;28;20405;-78
2022/06/12 07:31:50;;;;;;;15.13;3.90;;;19.00;27.20;;;;;;5037002;28;20469;-76
2022/06/12 07:34:16;;;;;;;10.13;3.90;;;19.10;27.20;;;;;;5036429;28;20460;-76
2022/06/12 07:36:45;;;;;;;9.33;3.50;;;19.30;25.80;;;;;;5035396;28;20893;-78
2022/06/12 07:39:15;;;;;;;14.02;3.75;;;19.30;25.60;;;;;;5038497;28;20441;-81
2022/06/12 07:41:42;;;;;;;12.90;4.03;;;19.20;23.70;;;;;;5049663;28;20457;-78
2022/06/12 07:44:07;;;;;;;13.43;3.72;;;19.30;24.00;;;;;;5036718;28;20387;-74
2022/06/12 07:46:35;;;;;;;7.63;2.60;;;19.30;24.30;;;;;;5036724;28;20468;-77
2022/06/12 07:49:00;;;;;;;10.60;3.10;;;19.30;21.00;;;;;;5045128;28;20429;-75
2022/06/12 07:51:26;;;;;;;10.65;3.17;;;19.20;22.50;;;;;;5044247;28;20386;-78
2022/06/12 07:53:53;;;;;;;14.38;3.00;;;19.20;22.80;;;;;;5046269;28;20403;-75
2022/06/12 07:56:21;;;;;;;7.38;2.20;;;19.30;21.50;;;;;;5029239;28;20401;-75
2022/06/12 07:58:47;;;;;;;8.93;3.07;;;19.40;21.40;;;;;;5032333;28;20417;-78
2022/06/12 08:01:18;;;;;;;7.90;2.97;;;19.50;22.00;;;;;;5032994;28;20497;-76
2022/06/12 08:03:44;;;;;;;8.93;2.85;;;19.40;21.60;;;;;;5026753;28;20418;-76
2022/06/12 08:06:10;;;;;;;12.77;3.30;;;19.50;22.30;;;;;;5033832;28;20430;-75
2022/06/12 08:08:35;;;;;;;15.35;3.10;;;19.50;22.00;;;;;;5023488;28;20418;-77
2022/06/12 08:11:01;;;;;;;9.48;2.78;;;19.60;20.00;;;;;;5028798;28;20411;-76
2022/06/12 08:13:28;;;;;;;9.75;2.60;;;19.60;19.40;;;;;;5029211;28;20922;-77
2022/06/12 08:15:54;;;;;;;10.45;2.70;;;19.60;19.50;;;;;;5028975;28;20488;-76
2022/06/12 08:18:21;;;;;;;8.35;2.13;;;19.80;19.00;;;;;;5030489;28;20586;-78
2022/06/12 08:20:55;;;;;;;6.65;2.35;;;19.90;17.60;;;;;;5037000;28;20399;-80
2022/06/12 08:23:30;;;;;;;7.72;2.45;;;19.90;15.70;;;;;;5035871;28;20441;-79
2022/06/12 08:25:56;;;;;;;6.85;2.00;;;19.80;15.90;;;;;;5051653;28;20419;-80
2022/06/12 08:28:26;;;;;;;5.78;1.90;;;19.80;17.00;;;;;;5033394;28;20690;-78
2022/06/12 08:30:52;;;;;;;6.22;2.15;;;20.00;17.80;;;;;;5028989;28;20437;-77
2022/06/12 08:33:18;;;;;;;9.55;2.10;;;20.10;15.50;;;;;;5045013;28;20435;-79
2022/06/12 08:35:44;;;;;;;7.35;2.30;;;20.00;15.90;;;;;;5044134;28;20403;-79
2022/06/12 08:38:16;;;;;;;4.53;1.90;;;20.00;17.60;;;;;;5040688;28;20405;-79
2022/06/12 08:41:05;;;;;;;8.57;2.30;;;20.10;15.90;;;;;;5056149;28;20407;-80
2022/06/12 08:43:38;;;;;;;5.25;2.10;;;20.30;15.70;;;;;;5042919;28;20432;-80
2022/06/12 08:46:18;;;;;;;8.10;2.47;;;20.30;15.50;;;;;;5056020;28;20413;-78
2022/06/12 08:48:52;;;;;;;6.82;2.53;;;20.40;15.60;;;;;;5021296;28;20414;-79
2022/06/12 08:51:31;;;;;;;8.10;2.28;;;20.50;16.00;;;;;;5034363;28;20498;-80
2022/06/12 08:54:23;;;;;;;9.90;2.40;;;20.60;16.20;;;;;;5048751;28;20474;-80
2022/06/12 08:56:54;;;;;;;10.02;2.38;;;20.70;15.50;;;;;;5021835;28;20927;-76
2022/06/12 08:59:41;;;;;;;8.90;2.87;;;20.60;15.40;;;;;;5024431;28;20488;-75
2022/06/12 09:02:29;;;;;;;7.43;2.40;;;20.50;16.00;;;;;;5025106;28;20764;-82
2022/06/12 09:04:55;;;;;;;9.70;2.30;;;20.60;16.40;;;;;;5029058;28;20410;-82
2022/06/12 09:07:30;;;;;;;10.80;2.90;;;20.70;17.00;;;;;;5030710;28;20414;-73
2022/06/12 09:10:06;;;;;;;9.68;2.50;;;20.80;16.90;;;;;;5027967;28;20411;-75
2022/06/12 09:12:49;;;;;;;10.55;3.20;;;21.00;16.20;;;;;;5034137;28;20938;-75
2022/06/12 09:15:23;;;;;;;13.70;3.20;;;21.20;16.40;;;;;;5037064;28;20404;-76
2022/06/12 09:18:13;;;;;;;8.45;2.58;;;21.20;15.50;;;;;;5032574;28;20399;-75
2022/06/12 09:21:01;;;;;;;8.50;2.70;;;21.20;16.30;;;;;;5040187;28;20389;-75
2022/06/12 09:23:59;;;;;;;7.50;2.50;;;21.20;16.30;;;;;;5046829;28;20389;-77
2022/06/12 09:26:46;;;;;;;7.07;2.30;;;21.10;16.60;;;;;;5010953;28;20393;-77
2022/06/12 09:29:16;;;;;;;10.35;2.67;;;21.20;17.00;;;;;;5061555;28;20393;-81
2022/06/12 09:32:05;;;;;;;9.10;2.20;;;21.30;16.30;;;;;;5042119;28;20403;-80
2022/06/12 09:35:04;;;;;;;7.53;2.47;;;21.40;16.40;;;;;;5029935;28;20403;-78
2022/06/12 09:38:18;;;;;;;10.90;3.20;;;21.40;16.00;;;;;;5053276;28;20399;-78
2022/06/12 09:41:19;;;;;;;12.25;2.42;;;21.50;15.90;;;;;;5007225;28;20903;-77
2022/06/12 09:43:56;;;;;;;8.80;2.30;;;21.60;15.90;;;;;;5033169;28;20602;-78
2022/06/12 09:46:31;;;;;;;6.43;2.40;;;21.60;15.50;;;;;;5053695;28;20405;-79
2022/06/12 09:49:25;;;;;;;11.43;2.70;;;21.80;15.40;;;;;;5038112;28;20390;-79
2022/06/12 09:52:08;;;;;;;9.38;2.60;;;21.70;15.40;;;;;;5034703;28;20915;-78
2022/06/12 09:54:42;;;;;;;7.15;2.17;;;21.50;15.90;;;;;;5034463;28;20441;-77
2022/06/12 09:57:18;;;;;;;9.77;2.75;;;21.50;14.90;;;;;;5037267;28;20803;-78
2022/06/12 09:59:48;;;;;;;7.00;2.20;;;21.50;15.00;;;;;;5030980;28;20804;-78
2022/06/12 10:02:35;;;;;;;8.00;2.80;;;21.60;14.00;;;;;;5036753;28;20415;-76
2022/06/12 10:05:10;;;;;;;6.63;2.40;;;21.70;15.60;;;;;;5035513;28;20733;-79
2022/06/12 10:08:02;;;;;;;6.50;2.50;;;21.60;15.90;;;;;;5033695;28;20553;-79
2022/06/12 10:10:47;;;;;;;9.52;2.45;;;21.80;15.00;;;;;;5024264;28;20422;-75
2022/06/12 10:13:20;;;;;;;9.57;2.80;;;21.80;13.60;;;;;;5034468;28;20433;-78
2022/06/12 10:16:02;;;;;;;5.65;2.17;;;21.80;14.50;;;;;;5036781;28;20448;-77
2022/06/12 10:19:11;;;;;;;5.73;2.20;;;21.80;14.90;;;;;;5026203;28;20404;-78
2022/06/12 10:21:43;;;;;;;7.20;1.80;;;21.80;14.90;;;;;;4985104;28;20858;-77
2022/06/12 10:24:11;;;;;;;11.07;2.78;;;21.80;10.90;;;;;;5051781;28;20410;-78
2022/06/12 10:26:37;;;;;;;6.57;2.30;;;21.60;12.50;;;;;;5052177;28;20413;-78
2022/06/12 10:29:13;;;;;;;14.15;2.67;;;21.70;12.20;;;;;;5044538;28;20454;-78
2022/06/12 10:31:58;;;;;;;10.65;3.00;;;21.90;14.10;;;;;;5059400;28;20742;-78
2022/06/12 10:34:28;;;;;;;8.32;2.60;;;22.10;14.60;;;;;;5063479;28;20377;-77
2022/06/12 10:36:55;;;;;;;11.60;2.72;;;22.10;14.30;;;;;;5052039;28;20485;-77
2022/06/12 10:39:23;;;;;;;12.40;2.88;;;22.00;14.80;;;;;;5049772;28;20383;-77
2022/06/12 10:42:02;;;;;;;10.82;2.90;;;22.20;14.70;;;;;;5050644;28;20443;-78
2022/06/12 10:44:27;;;;;;;7.90;2.60;;;22.30;13.70;;;;;;5057998;28;20393;-78
2022/06/12 10:46:53;;;;;;;14.77;2.73;;;22.40;13.80;;;;;;5051253;28;20406;-77
2022/06/12 10:49:23;;;;;;;10.80;3.10;;;22.60;14.20;;;;;;5047123;28;20414;-78
2022/06/12 10:51:50;;;;;;;11.57;2.28;;;22.50;14.20;;;;;;5044083;28;20408;-77
2022/06/12 10:54:19;;;;;;;10.73;2.60;;;22.40;15.00;;;;;;5053807;28;20478;-77
2022/06/12 10:57:03;;;;;;;8.93;2.47;;;22.70;14.90;;;;;;5039198;28;20415;-77
2022/06/12 10:59:42;;;;;;;11.40;2.90;;;22.90;13.90;;;;;;5040071;28;20379;-78
2022/06/12 11:02:52;;;;;;;12.40;2.95;;;22.90;13.90;;;;;;5049678;28;20401;-79
2022/06/12 11:05:39;;;;;;;14.65;3.22;;;23.20;14.70;;;;;;5036055;28;20415;-78
2022/06/12 11:08:42;;;;;;;11.95;2.80;;;23.50;14.10;;;;;;5046091;28;20465;-78
2022/06/12 11:11:30;;;;;;;12.85;3.10;;;23.70;13.90;;;;;;5053830;28;20389;-78
2022/06/12 11:14:04;;;;;;;15.57;6.72;;;23.80;12.90;;;;;;5057931;28;20410;-79
2022/06/12 11:16:55;;;;;;;10.43;2.85;;;23.60;13.30;;;;;;5057784;28;20396;-78
2022/06/12 11:19:38;;;;;;;15.93;3.00;;;22.90;13.50;;;;;;5045113;28;20422;-78
2022/06/12 11:22:13;;;;;;;7.70;2.42;;;22.70;14.60;;;;;;5042762;28;20395;-77
2022/06/12 11:25:10;;;;;;;11.55;2.50;;;22.70;14.20;;;;;;5042089;28;20419;-77
2022/06/12 11:27:53;;;;;;;13.68;3.22;;;22.90;13.90;;;;;;5023216;28;20424;-77
2022/06/12 11:30:34;;;;;;;10.15;3.67;;;23.40;12.80;;;;;;5021750;28;20451;-78
2022/06/12 11:33:19;;;;;;;13.07;3.27;;;23.70;13.30;;;;;;5040627;28;20401;-78
2022/06/12 11:36:16;;;;;;;12.00;3.22;;;24.10;13.60;;;;;;5068227;28;20397;-77
2022/06/12 11:38:56;;;;;;;10.17;2.70;;;24.50;11.40;;;;;;5044667;28;20407;-78
2022/06/12 11:41:37;;;;;;;8.13;2.55;;;24.70;10.20;;;;;;5048901;28;20478;-78
2022/06/12 11:44:20;;;;;;;10.75;2.80;;;24.50;9.90;;;;;;5048507;28;20418;-77
2022/06/12 11:46:51;;;;;;;9.48;2.45;;;24.40;11.10;;;;;;5054133;28;20393;-78
2022/06/12 11:49:45;;;;;;;12.45;3.30;;;24.70;11.50;;;;;;5058257;28;20377;-78
2022/06/12 11:52:32;;;;;;;7.55;2.70;;;24.90;10.80;;;;;;5037035;28;20446;-79
2022/06/12 11:55:05;;;;;;;11.63;3.05;;;25.00;10.00;;;;;;5034823;28;20406;-78
2022/06/12 11:58:01;;;;;;;8.95;2.83;;;25.00;9.40;;;;;;5041130;28;20789;-77
2022/06/12 12:00:38;;;;;;;9.03;2.77;;;25.10;9.70;;;;;;5039603;28;20383;-77
2022/06/12 12:03:30;;;;;;;10.35;3.10;;;25.30;10.00;;;;;;5037895;28;20744;-79
2022/06/12 12:06:38;;;;;;;13.82;3.08;;;24.90;10.30;;;;;;5042672;28;20411;-78
2022/06/12 12:09:31;;;;;;;9.95;2.72;;;24.80;10.60;;;;;;5051222;28;20395;-78
2022/06/12 12:12:12;;;;;;;10.85;2.83;;;24.80;9.80;;;;;;5044915;28;20411;-77
2022/06/12 12:14:41;;;;;;;8.98;2.53;;;24.80;9.90;;;;;;5029369;28;20403;-79
2022/06/12 12:17:21;;;;;;;9.50;2.80;;;25.00;9.40;;;;;;5028911;28;20407;-78
2022/06/12 12:19:53;;;;;;;13.80;3.05;;;25.00;9.00;;;;;;5019047;28;20422;-79
2022/06/12 12:22:35;;;;;;;14.65;3.10;;;24.90;9.10;;;;;;5036801;28;20962;-78
2022/06/12 12:25:26;;;;;;;12.75;2.80;;;24.80;9.70;;;;;;5032574;28;20904;-78
2022/06/12 12:27:55;;;;;;;11.80;2.97;;;24.80;9.80;;;;;;5035517;28;20403;-78
2022/06/12 12:30:31;;;;;;;14.00;3.50;;;25.00;9.00;;;;;;5039257;28;20725;-77
2022/06/12 12:33:00;;;;;;;6.80;2.20;;;25.10;8.80;;;;;;5040272;28;20391;-78
2022/06/12 12:41:11;;;;;;;10.00;3.17;;;25.20;7.70;;;;;;5041828;28;20406;-78
2022/06/12 12:43:54;;;;;;;7.72;3.10;;;25.30;8.00;;;;;;5032528;28;20406;-78
2022/06/12 12:46:23;;;;;;;11.80;3.20;;;25.40;7.20;;;;;;5039847;28;20438;-79
2022/06/12 12:48:55;;;;;;;10.95;3.08;;;25.30;7.40;;;;;;5040259;28;20406;-78
2022/06/12 12:51:30;;;;;;;14.43;3.60;;;25.00;9.10;;;;;;5040389;28;20971;-78
2022/06/12 12:54:20;;;;;;;12.75;3.75;;;24.90;9.40;;;;;;5035225;28;20755;-79
2022/06/12 12:57:01;;;;;;;11.90;3.55;;;25.00;10.30;;;;;;5040346;28;20427;-78
2022/06/12 12:59:43;;;;;;;10.68;3.65;;;25.00;9.60;;;;;;5048340;28;20409;-78
2022/06/12 13:02:20;;;;;;;13.02;3.05;;;24.80;10.50;;;;;;5070284;28;20389;-77
2022/06/12 13:04:45;;;;;;;10.00;3.20;;;25.00;9.40;;;;;;5056431;28;20400;-77
2022/06/12 13:07:44;;;;;;;9.30;2.80;;;24.90;9.40;;;;;;5036288;28;20386;-77
2022/06/12 13:10:29;;;;;;;6.05;3.00;;;24.90;8.90;;;;;;5033827;28;20414;-77
2022/06/12 13:13:20;;;;;;;9.85;3.40;;;25.00;9.50;;;;;;5036823;28;20859;-76
2022/06/12 13:15:58;;;;;;;12.25;3.47;;;24.70;9.80;;;;;;5043546;28;20915;-79
2022/06/12 13:18:42;;;;;;;14.98;7.47;;;24.50;10.70;;;;;;5056895;28;20423;-77
2022/06/12 13:21:41;;;;;;;11.27;5.85;;;25.00;10.10;;;;;;5045165;28;20387;-77
2022/06/12 13:24:27;;;;;;;9.07;3.00;;;25.20;7.80;;;;;;5055242;28;20381;-77
2022/06/12 13:26:54;;;;;;;11.02;3.15;;;26.10;6.20;;;;;;5038354;28;20390;-77
2022/06/12 13:29:22;;;;;;;9.00;3.65;;;26.90;5.30;;;;;;5038083;28;20949;-78
2022/06/12 13:31:59;;;;;;;12.07;3.30;;;27.70;4.70;;;;;;5057396;28;20425;-78
2022/06/12 13:34:27;;;;;;;9.32;2.60;;;27.80;4.50;;;;;;5048683;28;20391;-78
2022/06/12 13:36:54;;;;;;;11.20;3.00;;;27.30;5.20;;;;;;5046289;28;20417;-77
2022/06/12 13:39:31;;;;;;;11.95;2.70;;;25.90;6.60;;;;;;5066500;28;20413;-78
2022/06/12 13:41:59;;;;;;;12.05;3.20;;;26.00;7.10;;;;;;5039939;28;20469;-77
2022/06/12 13:44:25;;;;;;;12.03;3.00;;;27.00;5.90;;;;;;5051951;28;20746;-79
2022/06/12 13:46:52;;;;;;;9.07;2.80;;;27.60;5.60;;;;;;5056827;28;20373;-78
2022/06/12 13:49:37;;;;;;;11.18;3.28;;;28.20;5.60;;;;;;5048655;28;20453;-77
2022/06/12 13:52:40;;;;;;;8.40;3.05;;;27.50;5.90;;;;;;5056465;28;20424;-77
2022/06/12 13:55:25;;;;;;;5.47;2.67;;;27.80;5.50;;;;;;5042166;28;20884;-77
2022/06/12 13:57:54;;;;;;;8.03;2.90;;;28.00;4.60;;;;;;5046570;28;20389;-78
2022/06/12 14:00:25;;;;;;;12.95;5.57;;;28.80;3.90;;;;;;5056086;28;20394;-78
2022/06/12 14:02:51;;;;;;;11.07;3.97;;;29.80;2.00;;;;;;5052885;28;20500;-78
2022/06/12 14:05:19;;;;;;;7.93;3.00;;;28.90;3.40;;;;;;5054170;28;20403;-78
2022/06/12 14:07:47;;;;;;;9.32;2.70;;;29.00;2.80;;;;;;5065157;28;20521;-78
2022/06/12 14:10:52;;;;;;;9.82;3.10;;;29.20;3.00;;;;;;5059699;28;20418;-79
2022/06/12 14:13:43;;;;;;;10.20;3.00;;;29.40;1.70;;;;;;4963398;28;20454;-78